createdAt,value
2022-09-25T00:01:53.786Z,9.51
2022-09-25T00:04:23.610Z,9.93
2022-09-25T00:06:51.856Z,10.06
2022-09-25T00:09:23.348Z,10.06
2022-09-25T00:11:51.847Z,9.86
2022-09-25T00:14:20.154Z,9.72
2022-09-25T00:16:48.537Z,9.73
2022-09-25T00:19:39.818Z,9.66
2022-09-25T00:22:09.515Z,9.91
2022-09-25T00:24:37.838Z,9.87
2022-09-25T00:27:08.631Z,9.97
2022-09-25T00:29:38.541Z,10.10
2022-09-25T00:32:07.606Z,9.97
2022-09-25T00:34:36.448Z,10.00
2022-09-25T00:37:04.879Z,9.86
2022-09-25T00:39:35.189Z,9.67
2022-09-25T00:42:03.958Z,9.71
2022-09-25T00:44:56.810Z,9.69
2022-09-25T00:47:49.896Z,9.93
2022-09-25T00:50:28.613Z,9.83
2022-09-25T00:53:04.008Z,9.82
2022-09-25T00:55:34.756Z,10.01
2022-09-25T00:58:04.451Z,10.04
2022-09-25T01:00:33.925Z,9.73
2022-09-25T01:03:03.037Z,9.61
2022-09-25T01:05:34.236Z,9.76
2022-09-25T01:08:03.618Z,9.69
2022-09-25T01:10:31.918Z,9.74
2022-09-25T01:13:02.164Z,9.70
2022-09-25T01:15:38.301Z,9.47
2022-09-25T01:18:16.283Z,9.32
2022-09-25T01:21:06.578Z,9.28
2022-09-25T01:23:59.382Z,9.34
2022-09-25T01:26:45.119Z,9.52
2022-09-25T01:29:17.214Z,9.92
2022-09-25T01:31:49.540Z,10.05
2022-09-25T01:34:23.495Z,9.91
2022-09-25T01:36:58.026Z,9.97
2022-09-25T01:39:29.920Z,10.12
2022-09-25T01:42:01.751Z,10.19
2022-09-25T01:44:33.640Z,10.03
2022-09-25T01:47:06.168Z,10.04
2022-09-25T01:49:37.284Z,9.79
2022-09-25T01:52:08.719Z,9.85
2022-09-25T01:54:40.154Z,10.02
2022-09-25T01:57:10.612Z,9.99
2022-09-25T01:59:44.250Z,9.85
2022-09-25T02:02:14.927Z,9.75
2022-09-25T02:04:46.281Z,9.81
2022-09-25T02:07:21.246Z,9.93
2022-09-25T02:09:52.672Z,9.94
2022-09-25T02:12:27.114Z,9.94
2022-09-25T02:15:00.338Z,9.82
2022-09-25T02:17:49.277Z,9.90
2022-09-25T02:20:36.548Z,9.95
2022-09-25T02:23:09.584Z,9.91
2022-09-25T02:25:39.995Z,9.85
2022-09-25T02:28:08.412Z,10.08
2022-09-25T02:30:38.336Z,10.23
2022-09-25T02:33:06.633Z,10.19
2022-09-25T02:35:34.899Z,10.16
2022-09-25T02:38:04.858Z,10.14
2022-09-25T02:40:38.495Z,10.16
2022-09-25T02:43:13.463Z,10.15
2022-09-25T02:45:51.250Z,10.15
2022-09-25T02:48:25.668Z,10.17
2022-09-25T02:50:58.642Z,10.17
2022-09-25T02:53:34.026Z,10.09
2022-09-25T02:56:05.193Z,10.03
2022-09-25T02:58:36.730Z,10.09
2022-09-25T03:01:08.414Z,10.07
2022-09-25T03:03:39.312Z,10.01
2022-09-25T03:06:08.488Z,10.08
2022-09-25T03:08:39.624Z,10.03
2022-09-25T03:11:09.144Z,10.24
2022-09-25T03:13:37.964Z,10.30
2022-09-25T03:16:11.650Z,10.43
2022-09-25T03:18:39.976Z,10.40
2022-09-25T03:21:08.175Z,10.58
2022-09-25T03:23:36.485Z,10.73
2022-09-25T03:26:05.968Z,10.72
2022-09-25T03:28:34.451Z,10.67
2022-09-25T03:31:04.130Z,10.55
2022-09-25T03:33:36.432Z,10.44
2022-09-25T03:36:07.490Z,10.28
2022-09-25T03:38:35.844Z,10.19
2022-09-25T03:41:05.715Z,10.35
2022-09-25T03:43:36.686Z,10.28
2022-09-25T03:46:05.611Z,10.28
2022-09-25T03:48:36.230Z,10.16
2022-09-25T03:51:05.450Z,10.23
2022-09-25T03:53:34.890Z,10.24
2022-09-25T03:56:04.261Z,10.50
2022-09-25T03:58:32.799Z,10.55
2022-09-25T04:01:01.684Z,10.55
2022-09-25T04:03:30.888Z,10.59
2022-09-25T04:06:03.827Z,10.56
2022-09-25T04:08:32.817Z,10.32
2022-09-25T04:11:01.865Z,10.24
2022-09-25T04:13:32.253Z,10.19
2022-09-25T04:16:03.721Z,10.15
2022-09-25T04:18:32.472Z,10.03
2022-09-25T04:21:03.483Z,10.22
2022-09-25T04:23:31.862Z,10.22
2022-09-25T04:26:00.499Z,10.22
2022-09-25T04:28:31.259Z,10.24
2022-09-25T04:30:59.938Z,10.25
2022-09-25T04:33:45.600Z,10.26
2022-09-25T04:36:15.983Z,10.38
2022-09-25T04:38:44.352Z,10.35
2022-09-25T04:41:12.843Z,10.32
2022-09-25T04:43:41.442Z,10.39
2022-09-25T04:46:13.292Z,10.35
2022-09-25T04:48:45.819Z,10.33
2022-09-25T04:51:15.746Z,10.44
2022-09-25T04:53:44.063Z,10.40
2022-09-25T04:56:15.961Z,10.39
2022-09-25T04:58:46.198Z,10.36
2022-09-25T05:01:14.613Z,10.36
2022-09-25T05:03:43.135Z,10.23
2022-09-25T05:06:11.532Z,10.23
2022-09-25T05:08:41.442Z,10.23
2022-09-25T05:11:09.648Z,10.45
2022-09-25T05:13:37.859Z,10.44
2022-09-25T05:16:06.705Z,10.30
2022-09-25T05:18:34.947Z,10.43
2022-09-25T05:21:05.658Z,10.32
2022-09-25T05:23:33.990Z,10.24
2022-09-25T05:26:03.831Z,10.26
2022-09-25T05:28:32.578Z,10.41
2022-09-25T05:31:02.898Z,10.40
2022-09-25T05:33:31.278Z,10.38
2022-09-25T05:36:02.130Z,10.26
2022-09-25T05:38:30.616Z,10.43
2022-09-25T05:41:05.210Z,10.28
2022-09-25T05:43:34.283Z,10.13
2022-09-25T05:46:02.763Z,10.16
2022-09-25T05:48:31.197Z,10.17
2022-09-25T05:51:00.010Z,10.18
2022-09-25T05:53:29.190Z,10.25
2022-09-25T05:55:58.670Z,10.48
2022-09-25T05:58:29.614Z,10.43
2022-09-25T06:01:01.431Z,10.33
2022-09-25T06:03:30.242Z,10.28
2022-09-25T06:05:58.634Z,10.51
2022-09-25T06:08:27.175Z,10.39
2022-09-25T06:10:56.008Z,10.39
2022-09-25T06:13:25.452Z,10.39
2022-09-25T06:15:55.184Z,10.58
2022-09-25T06:18:24.578Z,10.56
2022-09-25T06:20:53.578Z,10.60
2022-09-25T06:23:21.744Z,10.72
2022-09-25T06:25:50.079Z,10.78
2022-09-25T06:28:18.351Z,10.67
2022-09-25T06:30:46.662Z,10.70
2022-09-25T06:33:16.396Z,10.71
2022-09-25T06:35:45.614Z,10.93
2022-09-25T06:38:14.453Z,10.84
2022-09-25T06:40:43.443Z,10.89
2022-09-25T06:43:13.586Z,10.77
2022-09-25T06:45:42.293Z,10.78
2022-09-25T06:48:12.825Z,10.84
2022-09-25T06:50:44.176Z,10.89
2022-09-25T06:53:13.310Z,10.76
2022-09-25T06:55:42.081Z,10.94
2022-09-25T06:58:12.787Z,10.91
2022-09-25T07:00:41.208Z,10.71
2022-09-25T07:03:26.902Z,10.54
2022-09-25T07:05:58.007Z,10.59
2022-09-25T07:08:26.388Z,10.57
2022-09-25T07:10:55.959Z,10.47
2022-09-25T07:13:26.724Z,10.46
2022-09-25T07:15:56.599Z,10.71
2022-09-25T07:18:25.938Z,10.75
2022-09-25T07:21:00.577Z,10.67
2022-09-25T07:23:31.375Z,10.72
2022-09-25T07:26:05.483Z,10.89
2022-09-25T07:28:34.544Z,10.99
2022-09-25T07:31:12.606Z,10.97
2022-09-25T07:33:41.213Z,11.17
2022-09-25T07:36:11.990Z,11.01
2022-09-25T07:38:41.343Z,11.13
2022-09-25T07:41:13.212Z,11.00
2022-09-25T07:43:43.608Z,10.82
2022-09-25T07:46:12.996Z,11.07
2022-09-25T07:48:41.577Z,11.12
2022-09-25T07:51:12.598Z,11.08
2022-09-25T07:53:41.439Z,10.80
2022-09-25T07:56:11.162Z,10.84
2022-09-25T07:58:40.201Z,10.96
2022-09-25T08:01:13.272Z,10.93
2022-09-25T08:03:41.845Z,10.93
2022-09-25T08:06:13.484Z,11.04
2022-09-25T08:08:42.825Z,11.02
2022-09-25T08:11:12.594Z,11.00
2022-09-25T08:13:41.772Z,10.97
2022-09-25T08:16:13.635Z,11.03
2022-09-25T08:18:42.688Z,11.13
2022-09-25T08:21:14.399Z,11.07
2022-09-25T08:23:47.778Z,11.03
2022-09-25T08:26:16.462Z,11.10
2022-09-25T08:28:46.287Z,11.20
2022-09-25T08:31:15.720Z,11.16
2022-09-25T08:33:49.739Z,11.23
2022-09-25T08:36:19.640Z,11.23
2022-09-25T08:38:47.947Z,11.35
2022-09-25T08:41:19.524Z,11.26
2022-09-25T08:43:56.676Z,11.37
2022-09-25T08:46:50.063Z,11.48
2022-09-25T08:49:20.335Z,11.36
2022-09-25T08:58:21.145Z,11.26
2022-09-25T09:00:49.635Z,11.31
2022-09-25T09:03:20.590Z,10.92
2022-09-25T09:05:51.711Z,11.00
2022-09-25T09:08:25.409Z,11.12
2022-09-25T09:10:56.415Z,11.22
2022-09-25T09:13:28.756Z,11.24
2022-09-25T09:16:03.967Z,11.06
2022-09-25T09:18:34.029Z,11.08
2022-09-25T09:21:10.145Z,11.10
2022-09-25T09:23:43.990Z,11.21
2022-09-25T09:26:17.507Z,11.21
2022-09-25T09:29:06.033Z,11.47
2022-09-25T09:31:41.778Z,11.42
2022-09-25T09:35:01.138Z,11.47
2022-09-25T09:37:31.802Z,11.43
2022-09-25T09:40:10.184Z,11.49
2022-09-25T09:42:44.179Z,11.55
2022-09-25T09:45:20.008Z,11.76
2022-09-25T09:47:53.499Z,11.86
2022-09-25T09:50:27.661Z,12.27
2022-09-25T09:52:59.844Z,12.17
2022-09-25T09:55:34.910Z,12.32
2022-09-25T09:58:08.748Z,12.43
2022-09-25T10:00:40.447Z,12.54
2022-09-25T10:03:14.117Z,12.54
2022-09-25T10:05:44.922Z,12.55
2022-09-25T10:08:13.428Z,12.44
2022-09-25T10:10:43.663Z,12.51
2022-09-25T10:13:16.881Z,12.69
2022-09-25T10:15:51.857Z,13.10
2022-09-25T10:18:21.677Z,13.01
2022-09-25T10:20:54.176Z,12.79
2022-09-25T10:23:38.731Z,12.69
2022-09-25T10:26:23.784Z,13.17
2022-09-25T10:28:52.129Z,12.99
2022-09-25T10:31:22.063Z,13.13
2022-09-25T10:34:02.259Z,13.13
2022-09-25T10:36:36.562Z,13.25
2022-09-25T10:39:31.516Z,13.14
2022-09-25T10:41:53.877Z,13.16
2022-09-25T10:44:24.867Z,13.14
2022-09-25T10:47:12.067Z,13.26
2022-09-25T10:50:05.329Z,13.37
2022-09-25T10:52:48.201Z,13.34
2022-09-25T10:55:25.381Z,13.63
2022-09-25T10:57:58.330Z,13.55
2022-09-25T11:00:27.963Z,13.69
2022-09-25T11:02:59.959Z,13.75
2022-09-25T11:05:31.009Z,13.85
2022-09-25T11:08:01.562Z,13.95
2022-09-25T11:10:35.777Z,14.00
2022-09-25T11:13:16.914Z,14.23
2022-09-25T11:15:49.705Z,14.64
2022-09-25T11:18:36.514Z,14.86
2022-09-25T11:21:06.737Z,14.60
2022-09-25T11:23:37.849Z,14.97
2022-09-25T11:26:10.305Z,15.31
2022-09-25T11:28:41.574Z,15.70
2022-09-25T11:31:15.488Z,16.00
2022-09-25T11:33:54.393Z,16.33
2022-09-25T11:36:27.998Z,16.08
2022-09-25T11:39:15.666Z,16.06
2022-09-25T11:41:47.190Z,16.05
2022-09-25T11:44:26.779Z,15.34
2022-09-25T11:47:02.220Z,15.21
2022-09-25T11:49:34.569Z,15.16
2022-09-25T11:52:22.990Z,14.98
2022-09-25T11:55:30.069Z,14.94
2022-09-25T11:58:03.236Z,14.78
2022-09-25T12:00:38.632Z,14.65
2022-09-25T12:03:23.199Z,14.52
2022-09-25T12:06:05.697Z,14.39
2022-09-25T12:08:46.220Z,14.33
2022-09-25T12:11:22.449Z,14.51
2022-09-25T12:13:56.296Z,14.52
2022-09-25T12:16:32.487Z,14.54
2022-09-25T12:19:26.725Z,14.65
2022-09-25T12:22:09.096Z,14.88
2022-09-25T12:24:49.927Z,14.91
2022-09-25T12:27:23.005Z,14.93
2022-09-25T12:30:11.979Z,15.30
2022-09-25T12:32:53.347Z,15.14
2022-09-25T12:35:32.661Z,15.09
2022-09-25T12:38:07.089Z,15.16
2022-09-25T12:40:39.287Z,15.29
2022-09-25T12:43:14.386Z,15.43
2022-09-25T12:45:46.691Z,15.58
2022-09-25T12:48:19.002Z,15.91
2022-09-25T12:50:53.323Z,16.00
2022-09-25T12:53:32.159Z,15.66
2022-09-25T12:56:08.213Z,15.76
2022-09-25T12:58:48.768Z,15.84
2022-09-25T13:01:21.631Z,15.81
2022-09-25T13:03:57.000Z,15.97
2022-09-25T13:06:31.597Z,16.48
2022-09-25T13:09:06.331Z,15.97
2022-09-25T13:11:39.400Z,16.09
2022-09-25T13:14:16.900Z,16.04
2022-09-25T13:16:49.095Z,16.20
2022-09-25T13:19:26.529Z,16.26
2022-09-25T13:22:01.355Z,16.11
2022-09-25T13:24:32.507Z,16.22
2022-09-25T13:27:03.536Z,16.33
2022-09-25T13:29:36.559Z,16.70
2022-09-25T13:32:10.010Z,16.87
2022-09-25T13:34:40.685Z,17.13
2022-09-25T13:37:13.299Z,17.03
2022-09-25T13:40:03.609Z,16.74
2022-09-25T13:42:38.481Z,16.66
2022-09-25T13:45:29.334Z,16.89
2022-09-25T13:48:07.154Z,16.29
2022-09-25T13:50:39.021Z,16.45
2022-09-25T13:53:22.182Z,16.51
2022-09-25T13:56:27.342Z,16.23
2022-09-25T13:59:22.580Z,16.19
2022-09-25T14:01:54.895Z,16.27
2022-09-25T14:04:29.671Z,16.20
2022-09-25T14:07:05.000Z,16.49
2022-09-25T14:09:34.300Z,16.11
2022-09-25T14:12:12.055Z,16.14
2022-09-25T14:14:52.632Z,15.86
2022-09-25T14:17:23.328Z,15.90
2022-09-25T14:19:54.082Z,16.01
2022-09-25T14:22:31.013Z,16.41
2022-09-25T14:24:59.391Z,16.44
2022-09-25T14:27:29.278Z,16.51
2022-09-25T14:30:07.233Z,16.37
2022-09-25T14:32:55.049Z,16.56
2022-09-25T14:35:41.654Z,16.44
2022-09-25T14:38:43.538Z,16.03
2022-09-25T14:41:49.171Z,15.84
2022-09-25T14:44:36.630Z,15.83
2022-09-25T14:47:08.312Z,15.96
2022-09-25T14:49:39.607Z,15.98
2022-09-25T14:52:10.867Z,15.95
2022-09-25T14:54:45.199Z,15.84
2022-09-25T14:57:16.741Z,16.00
2022-09-25T14:59:47.140Z,16.10
2022-09-25T15:02:22.882Z,16.09
2022-09-25T15:04:51.485Z,15.74
2022-09-25T15:07:25.358Z,15.70
2022-09-25T15:09:56.336Z,15.83
2022-09-25T15:12:29.755Z,15.65
2022-09-25T15:14:59.906Z,15.58
2022-09-25T15:17:31.367Z,15.51
2022-09-25T15:20:01.910Z,15.27
2022-09-25T15:22:33.736Z,15.11
2022-09-25T15:25:04.357Z,14.97
2022-09-25T15:27:33.038Z,15.01
2022-09-25T15:30:02.217Z,14.85
2022-09-25T15:32:39.517Z,14.87
2022-09-25T15:35:19.742Z,14.86
2022-09-25T15:37:48.870Z,14.79
2022-09-25T15:40:22.910Z,14.79
2022-09-25T15:42:52.218Z,14.65
2022-09-25T15:45:42.927Z,14.78
2022-09-25T15:48:17.787Z,14.66
2022-09-25T15:50:46.613Z,14.50
2022-09-25T15:53:28.250Z,14.32
2022-09-25T15:56:09.196Z,13.98
2022-09-25T15:58:45.202Z,13.95
2022-09-25T16:01:48.280Z,13.84
2022-09-25T16:04:38.977Z,13.82
2022-09-25T16:07:24.366Z,13.79
2022-09-25T16:09:54.528Z,13.63
2022-09-25T16:12:29.002Z,13.44
2022-09-25T16:14:58.828Z,13.33
2022-09-25T16:17:33.636Z,13.22
2022-09-25T16:20:07.450Z,13.36
2022-09-25T16:22:41.109Z,13.23
2022-09-25T16:25:18.327Z,13.19
2022-09-25T16:27:48.895Z,13.05
2022-09-25T16:30:19.360Z,13.07
2022-09-25T16:32:51.204Z,13.14
2022-09-25T16:35:40.635Z,13.11
2022-09-25T16:38:28.361Z,13.10
2022-09-25T16:41:07.161Z,13.17
2022-09-25T16:43:36.360Z,13.21
2022-09-25T16:46:14.379Z,13.19
2022-09-25T16:48:43.572Z,13.10
2022-09-25T16:51:18.348Z,13.05
2022-09-25T16:53:50.781Z,12.96
2022-09-25T16:56:22.915Z,12.98
2022-09-25T16:58:52.015Z,12.87
2022-09-25T17:01:20.968Z,12.81
2022-09-25T17:03:52.852Z,12.77
2022-09-25T17:06:26.518Z,12.79
2022-09-25T17:08:55.385Z,12.79
2022-09-25T17:11:24.829Z,12.77
2022-09-25T17:13:53.784Z,12.81
2022-09-25T17:16:23.916Z,12.80
2022-09-25T17:18:54.122Z,12.78
2022-09-25T17:21:27.088Z,12.67
2022-09-25T17:23:55.705Z,12.64
2022-09-25T17:26:25.425Z,12.62
2022-09-25T17:28:53.901Z,12.55
2022-09-25T17:31:23.826Z,12.49
2022-09-25T17:33:52.367Z,12.48
2022-09-25T17:36:21.093Z,12.47
2022-09-25T17:38:50.783Z,12.45
2022-09-25T17:41:30.421Z,12.49
2022-09-25T17:43:59.575Z,12.52
2022-09-25T17:46:28.316Z,12.56
2022-09-25T17:48:57.611Z,12.54
2022-09-25T17:51:28.038Z,12.53
2022-09-25T17:53:59.675Z,12.58
2022-09-25T17:56:29.632Z,12.58
2022-09-25T17:58:58.670Z,12.59
2022-09-25T18:01:28.891Z,12.61
2022-09-25T18:03:59.844Z,12.57
2022-09-25T18:06:29.788Z,12.58
2022-09-25T18:08:59.782Z,12.62
2022-09-25T18:11:28.417Z,12.63
2022-09-25T18:14:01.528Z,12.63
2022-09-25T18:16:32.276Z,12.62
2022-09-25T18:19:19.014Z,12.61
2022-09-25T18:22:05.314Z,12.56
2022-09-25T18:24:35.558Z,12.60
2022-09-25T18:27:04.861Z,12.60
2022-09-25T18:29:36.368Z,12.57
2022-09-25T18:32:05.295Z,12.63
2022-09-25T18:34:33.728Z,12.62
2022-09-25T18:37:02.351Z,12.60
2022-09-25T18:39:30.846Z,12.63
2022-09-25T18:42:01.978Z,12.69
2022-09-25T18:44:31.254Z,12.68
2022-09-25T18:47:01.784Z,12.71
2022-09-25T18:49:30.589Z,12.71
2022-09-25T18:51:58.890Z,12.76
2022-09-25T18:54:27.254Z,12.76
2022-09-25T18:56:58.563Z,12.80
2022-09-25T18:59:28.766Z,12.87
2022-09-25T19:01:57.677Z,13.03
2022-09-25T19:04:26.896Z,13.10
2022-09-25T19:06:56.437Z,13.04
2022-09-25T19:09:27.620Z,13.03
2022-09-25T19:11:56.421Z,12.95
2022-09-25T19:14:25.544Z,12.81
2022-09-25T19:16:56.129Z,12.96
2022-09-25T19:19:24.825Z,13.03
2022-09-25T19:21:56.525Z,12.95
2022-09-25T19:24:26.065Z,12.91
2022-09-25T19:26:55.781Z,12.84
2022-09-25T19:29:24.319Z,12.85
2022-09-25T19:31:52.929Z,12.91
2022-09-25T19:34:23.058Z,12.87
2022-09-25T19:36:51.765Z,12.85
2022-09-25T19:39:20.307Z,12.82
2022-09-25T19:41:49.338Z,12.81
2022-09-25T19:44:19.120Z,12.81
2022-09-25T19:46:48.966Z,12.71
2022-09-25T19:49:20.728Z,12.71
2022-09-25T19:51:51.323Z,12.62
2022-09-25T19:54:19.901Z,12.58
2022-09-25T19:56:48.355Z,12.60
2022-09-25T19:59:17.486Z,12.60
2022-09-25T20:01:46.454Z,12.57
2022-09-25T20:04:18.625Z,12.61
2022-09-25T20:06:47.828Z,12.59
2022-09-25T20:09:17.515Z,12.59
2022-09-25T20:11:46.177Z,12.59
2022-09-25T20:14:14.532Z,12.59
2022-09-25T20:16:42.867Z,12.62
2022-09-25T20:19:11.668Z,12.58
2022-09-25T20:21:41.562Z,12.80
2022-09-25T20:24:10.211Z,12.71
2022-09-25T20:26:40.249Z,12.64
2022-09-25T20:29:10.449Z,12.75
2022-09-25T20:31:40.609Z,12.84
2022-09-25T20:34:10.824Z,12.72
2022-09-25T20:36:39.273Z,12.59
2022-09-25T20:39:08.039Z,12.54
2022-09-25T20:41:36.517Z,12.49
2022-09-25T20:44:07.052Z,12.47
2022-09-25T20:46:35.738Z,12.45
2022-09-25T20:49:04.677Z,12.37
2022-09-25T20:51:35.456Z,12.26
2022-09-25T20:54:05.692Z,12.34
2022-09-25T20:56:34.776Z,12.31
2022-09-25T20:59:03.996Z,12.29
2022-09-25T21:01:36.876Z,12.29
2022-09-25T21:04:08.054Z,12.29
2022-09-25T21:06:38.615Z,12.34
2022-09-25T21:09:08.579Z,12.32
2022-09-25T21:11:37.597Z,12.32
2022-09-25T21:14:05.946Z,12.31
2022-09-25T21:16:35.655Z,12.35
2022-09-25T21:19:05.423Z,12.32
2022-09-25T21:21:34.726Z,12.34
2022-09-25T21:24:03.427Z,12.44
2022-09-25T21:26:32.709Z,12.49
2022-09-25T21:29:02.451Z,12.68
2022-09-25T21:31:32.743Z,12.82
2022-09-25T21:34:02.980Z,12.76
2022-09-25T21:36:31.360Z,12.66
2022-09-25T21:39:00.602Z,12.44
2022-09-25T21:41:31.250Z,12.49
2022-09-25T21:44:00.946Z,12.30
2022-09-25T21:46:30.095Z,12.32
2022-09-25T21:48:59.826Z,12.18
2022-09-25T21:51:32.490Z,12.09
2022-09-25T21:54:01.350Z,12.07
2022-09-25T21:56:31.588Z,12.04
2022-09-25T21:59:07.381Z,12.04
2022-09-25T22:01:38.700Z,12.00
2022-09-25T22:04:08.275Z,11.99
2022-09-25T22:06:40.106Z,12.06
2022-09-25T22:09:10.104Z,12.06
2022-09-25T22:11:38.574Z,12.04
2022-09-25T22:14:10.831Z,12.02
2022-09-25T22:16:43.806Z,11.99
2022-09-25T22:19:14.011Z,11.95
2022-09-25T22:21:44.669Z,11.92
2022-09-25T22:24:12.970Z,11.96
2022-09-25T22:26:42.887Z,11.98
2022-09-25T22:29:12.171Z,12.05
2022-09-25T22:31:43.246Z,11.99
2022-09-25T22:34:17.168Z,11.96
2022-09-25T22:36:47.065Z,11.90
2022-09-25T22:39:17.002Z,11.96
2022-09-25T22:41:46.001Z,12.00
2022-09-25T22:44:14.521Z,12.01
2022-09-25T22:46:42.735Z,12.02
2022-09-25T22:49:11.000Z,12.04
2022-09-25T22:51:39.563Z,12.04
2022-09-25T22:54:09.264Z,12.07
2022-09-25T22:56:37.566Z,12.04
2022-09-25T22:59:07.629Z,12.06
2022-09-25T23:01:38.071Z,12.00
2022-09-25T23:04:07.732Z,12.00
2022-09-25T23:06:36.530Z,12.04
2022-09-25T23:09:06.450Z,12.08
2022-09-25T23:11:36.175Z,12.07
2022-09-25T23:14:06.638Z,12.07
2022-09-25T23:16:35.029Z,12.03
2022-09-25T23:19:03.964Z,11.98
2022-09-25T23:21:32.781Z,11.96
2022-09-25T23:24:02.549Z,11.90
2022-09-25T23:26:31.258Z,11.90
2022-09-25T23:29:01.753Z,11.84
2022-09-25T23:31:31.270Z,11.90
2022-09-25T23:33:59.930Z,11.79
2022-09-25T23:36:28.532Z,11.79
2022-09-25T23:38:57.774Z,11.81
2022-09-25T23:41:27.574Z,11.85
2022-09-25T23:43:56.276Z,11.85
2022-09-25T23:46:27.817Z,11.88
2022-09-25T23:48:56.785Z,11.89
2022-09-25T23:51:26.215Z,11.93
2022-09-25T23:53:55.339Z,11.98
2022-09-25T23:56:25.136Z,11.86
2022-09-25T23:58:53.768Z,11.83
